Weather at Tynset Airfield

Public forecast

Using degrees Celsius for public forecast. Weather courtesy of forecast.io.

Closest aviation weather report (METAR) to Tynset Airfield

Closest report is Røros Airport, 26.9 nm (49.8 km) NE.

2024/05/22 16:50 (retrieved 38 minutes ago)

ENRO 221650Z 17010KT CAVOK 21/M04 Q1018

Closest aviation forecast (TAF) to Tynset Airfield

Closest forecast is Trondheim Airport, Værnes, 72.4 nm (134.2 km) N.

2024/05/22 12:36 (retrieved 5 hours ago)

TAF ENVA 221100Z 2212/2312 16012KT CAVOK BECMG 2217/2219 10005KT BECMG 2308/2310 16012KT